sensor_id;sensor_type;location;lat;lon;timestamp;temperature;humidity
55135;DHT22;41031;44.750;11.308;2022-09-27T00:00:31;16.10;81.60
55135;DHT22;41031;44.750;11.308;2022-09-27T00:02:58;16.10;81.40
55135;DHT22;41031;44.750;11.308;2022-09-27T00:05:26;16.10;80.30
55135;DHT22;41031;44.750;11.308;2022-09-27T00:07:53;16.00;80.30
55135;DHT22;41031;44.750;11.308;2022-09-27T00:10:20;15.90;80.30
55135;DHT22;41031;44.750;11.308;2022-09-27T00:12:47;15.90;80.30
55135;DHT22;41031;44.750;11.308;2022-09-27T00:15:14;15.90;80.10
55135;DHT22;41031;44.750;11.308;2022-09-27T00:17:42;15.90;80.20
55135;DHT22;41031;44.750;11.308;2022-09-27T00:20:09;15.90;80.30
55135;DHT22;41031;44.750;11.308;2022-09-27T00:22:36;15.90;80.30
55135;DHT22;41031;44.750;11.308;2022-09-27T00:25:04;15.90;80.30
55135;DHT22;41031;44.750;11.308;2022-09-27T00:27:33;15.90;80.50
55135;DHT22;41031;44.750;11.308;2022-09-27T00:30:00;15.90;80.70
55135;DHT22;41031;44.750;11.308;2022-09-27T00:32:27;15.90;80.90
55135;DHT22;41031;44.750;11.308;2022-09-27T00:34:54;15.90;80.80
55135;DHT22;41031;44.750;11.308;2022-09-27T00:37:21;15.90;80.60
55135;DHT22;41031;44.750;11.308;2022-09-27T00:39:48;15.90;80.70
55135;DHT22;41031;44.750;11.308;2022-09-27T00:42:15;15.90;80.80
55135;DHT22;41031;44.750;11.308;2022-09-27T00:44:50;15.90;81.10
55135;DHT22;41031;44.750;11.308;2022-09-27T00:47:26;15.90;81.00
55135;DHT22;41031;44.750;11.308;2022-09-27T00:50:05;15.90;80.80
55135;DHT22;41031;44.750;11.308;2022-09-27T00:53:01;15.90;80.80
55135;DHT22;41031;44.750;11.308;2022-09-27T00:55:33;15.90;80.70
55135;DHT22;41031;44.750;11.308;2022-09-27T00:58:02;15.80;80.70
55135;DHT22;41031;44.750;11.308;2022-09-27T01:00:31;15.80;81.00
55135;DHT22;41031;44.750;11.308;2022-09-27T01:02:58;15.80;81.50
55135;DHT22;41031;44.750;11.308;2022-09-27T01:05:27;15.70;82.00
55135;DHT22;41031;44.750;11.308;2022-09-27T01:07:55;15.80;82.00
55135;DHT22;41031;44.750;11.308;2022-09-27T01:10:23;15.70;81.80
55135;DHT22;41031;44.750;11.308;2022-09-27T01:13:22;15.60;82.10
55135;DHT22;41031;44.750;11.308;2022-09-27T01:18:33;15.60;82.90
55135;DHT22;41031;44.750;11.308;2022-09-27T01:44:26;15.50;83.90
55135;DHT22;41031;44.750;11.308;2022-09-27T01:47:11;15.50;84.20
55135;DHT22;41031;44.750;11.308;2022-09-27T01:50:07;15.50;84.40
55135;DHT22;41031;44.750;11.308;2022-09-27T01:53:29;15.50;84.70
55135;DHT22;41031;44.750;11.308;2022-09-27T01:55:50;15.50;84.70
55135;DHT22;41031;44.750;11.308;2022-09-27T02:01:49;15.40;84.70
55135;DHT22;41031;44.750;11.308;2022-09-27T02:04:29;15.40;84.90
55135;DHT22;41031;44.750;11.308;2022-09-27T02:07:17;15.40;85.20
55135;DHT22;41031;44.750;11.308;2022-09-27T02:09:55;15.40;85.10
55135;DHT22;41031;44.750;11.308;2022-09-27T02:12:36;15.30;84.90
55135;DHT22;41031;44.750;11.308;2022-09-27T02:15:12;15.30;85.00
55135;DHT22;41031;44.750;11.308;2022-09-27T02:17:50;15.20;85.10
55135;DHT22;41031;44.750;11.308;2022-09-27T02:20:30;15.20;85.50
55135;DHT22;41031;44.750;11.308;2022-09-27T02:28:29;15.20;85.60
55135;DHT22;41031;44.750;11.308;2022-09-27T02:30:57;15.20;85.60
55135;DHT22;41031;44.750;11.308;2022-09-27T02:33:36;15.10;85.30
55135;DHT22;41031;44.750;11.308;2022-09-27T02:36:05;15.10;85.30
55135;DHT22;41031;44.750;11.308;2022-09-27T02:38:32;15.10;85.40
55135;DHT22;41031;44.750;11.308;2022-09-27T02:41:01;15.10;85.60
55135;DHT22;41031;44.750;11.308;2022-09-27T02:43:30;15.00;85.70
55135;DHT22;41031;44.750;11.308;2022-09-27T02:46:13;15.00;85.90
55135;DHT22;41031;44.750;11.308;2022-09-27T03:00:16;14.90;86.20
55135;DHT22;41031;44.750;11.308;2022-09-27T03:03:13;14.80;85.90
55135;DHT22;41031;44.750;11.308;2022-09-27T03:08:28;14.70;86.60
55135;DHT22;41031;44.750;11.308;2022-09-27T03:10:55;14.70;86.70
55135;DHT22;41031;44.750;11.308;2022-09-27T03:13:22;14.70;86.80
55135;DHT22;41031;44.750;11.308;2022-09-27T03:15:49;14.60;86.70
55135;DHT22;41031;44.750;11.308;2022-09-27T03:18:16;14.60;86.80
55135;DHT22;41031;44.750;11.308;2022-09-27T03:20:52;14.60;87.00
55135;DHT22;41031;44.750;11.308;2022-09-27T03:23:24;14.60;86.90
55135;DHT22;41031;44.750;11.308;2022-09-27T03:25:51;14.60;86.90
55135;DHT22;41031;44.750;11.308;2022-09-27T03:28:18;14.60;87.00
55135;DHT22;41031;44.750;11.308;2022-09-27T03:30:46;14.60;87.10
55135;DHT22;41031;44.750;11.308;2022-09-27T03:33:33;14.50;87.30
55135;DHT22;41031;44.750;11.308;2022-09-27T03:36:06;14.60;87.50
55135;DHT22;41031;44.750;11.308;2022-09-27T03:38:33;14.60;87.60
55135;DHT22;41031;44.750;11.308;2022-09-27T03:41:00;14.60;87.80
55135;DHT22;41031;44.750;11.308;2022-09-27T03:43:29;14.50;87.80
55135;DHT22;41031;44.750;11.308;2022-09-27T03:46:00;14.50;87.80
55135;DHT22;41031;44.750;11.308;2022-09-27T03:48:27;14.60;87.90
55135;DHT22;41031;44.750;11.308;2022-09-27T03:50:56;14.60;88.00
55135;DHT22;41031;44.750;11.308;2022-09-27T03:53:24;14.60;88.10
55135;DHT22;41031;44.750;11.308;2022-09-27T03:55:51;14.50;88.10
55135;DHT22;41031;44.750;11.308;2022-09-27T03:58:18;14.50;88.00
55135;DHT22;41031;44.750;11.308;2022-09-27T04:00:46;14.50;88.10
55135;DHT22;41031;44.750;11.308;2022-09-27T04:03:13;14.50;88.20
55135;DHT22;41031;44.750;11.308;2022-09-27T04:06:03;14.50;88.20
55135;DHT22;41031;44.750;11.308;2022-09-27T04:08:36;14.50;88.10
55135;DHT22;41031;44.750;11.308;2022-09-27T04:11:05;14.50;88.00
55135;DHT22;41031;44.750;11.308;2022-09-27T04:13:33;14.50;88.00
55135;DHT22;41031;44.750;11.308;2022-09-27T04:16:01;14.40;88.20
55135;DHT22;41031;44.750;11.308;2022-09-27T04:18:47;14.50;88.50
55135;DHT22;41031;44.750;11.308;2022-09-27T04:21:52;14.60;88.80
55135;DHT22;41031;44.750;11.308;2022-09-27T04:24:19;14.60;88.90
55135;DHT22;41031;44.750;11.308;2022-09-27T04:27:04;14.60;89.00
55135;DHT22;41031;44.750;11.308;2022-09-27T04:29:31;14.60;89.00
55135;DHT22;41031;44.750;11.308;2022-09-27T04:32:13;14.70;89.10
55135;DHT22;41031;44.750;11.308;2022-09-27T04:34:58;14.70;89.60
55135;DHT22;41031;44.750;11.308;2022-09-27T04:37:44;14.70;89.20
55135;DHT22;41031;44.750;11.308;2022-09-27T04:40:12;14.70;89.30
55135;DHT22;41031;44.750;11.308;2022-09-27T04:42:39;14.70;89.40
55135;DHT22;41031;44.750;11.308;2022-09-27T04:45:06;14.80;89.50
55135;DHT22;41031;44.750;11.308;2022-09-27T04:47:34;14.80;89.50
55135;DHT22;41031;44.750;11.308;2022-09-27T04:50:02;14.80;89.40
55135;DHT22;41031;44.750;11.308;2022-09-27T04:52:29;14.80;89.30
55135;DHT22;41031;44.750;11.308;2022-09-27T04:54:57;14.80;89.30
55135;DHT22;41031;44.750;11.308;2022-09-27T04:57:25;14.70;89.20
55135;DHT22;41031;44.750;11.308;2022-09-27T04:59:52;14.70;89.10
55135;DHT22;41031;44.750;11.308;2022-09-27T05:02:19;14.70;89.00
55135;DHT22;41031;44.750;11.308;2022-09-27T05:05:04;14.70;88.90
55135;DHT22;41031;44.750;11.308;2022-09-27T05:07:37;14.70;89.10
55135;DHT22;41031;44.750;11.308;2022-09-27T05:10:10;14.60;89.20
55135;DHT22;41031;44.750;11.308;2022-09-27T05:12:37;14.60;89.40
55135;DHT22;41031;44.750;11.308;2022-09-27T05:15:05;14.60;89.50
55135;DHT22;41031;44.750;11.308;2022-09-27T05:17:51;14.60;89.60
55135;DHT22;41031;44.750;11.308;2022-09-27T05:20:24;14.70;89.70
55135;DHT22;41031;44.750;11.308;2022-09-27T05:23:03;14.70;89.80
55135;DHT22;41031;44.750;11.308;2022-09-27T05:25:33;14.70;89.80
55135;DHT22;41031;44.750;11.308;2022-09-27T05:28:01;14.70;89.70
55135;DHT22;41031;44.750;11.308;2022-09-27T05:30:29;14.60;89.40
55135;DHT22;41031;44.750;11.308;2022-09-27T05:33:06;14.70;89.50
55135;DHT22;41031;44.750;11.308;2022-09-27T05:35:53;14.60;89.60
55135;DHT22;41031;44.750;11.308;2022-09-27T05:38:23;14.70;89.80
55135;DHT22;41031;44.750;11.308;2022-09-27T05:40:54;14.70;89.90
55135;DHT22;41031;44.750;11.308;2022-09-27T05:43:23;14.70;89.80
55135;DHT22;41031;44.750;11.308;2022-09-27T05:45:51;14.70;89.90
55135;DHT22;41031;44.750;11.308;2022-09-27T05:48:20;14.70;90.00
55135;DHT22;41031;44.750;11.308;2022-09-27T05:50:55;14.80;90.30
55135;DHT22;41031;44.750;11.308;2022-09-27T05:53:22;14.80;90.00
55135;DHT22;41031;44.750;11.308;2022-09-27T05:55:49;14.90;89.90
55135;DHT22;41031;44.750;11.308;2022-09-27T05:58:20;15.00;89.90
55135;DHT22;41031;44.750;11.308;2022-09-27T06:00:54;15.20;90.00
55135;DHT22;41031;44.750;11.308;2022-09-27T06:03:50;15.30;89.80
55135;DHT22;41031;44.750;11.308;2022-09-27T06:06:37;15.40;89.50
55135;DHT22;41031;44.750;11.308;2022-09-27T06:09:09;15.50;89.60
55135;DHT22;41031;44.750;11.308;2022-09-27T06:11:37;15.60;89.80
55135;DHT22;41031;44.750;11.308;2022-09-27T06:14:14;15.60;89.70
55135;DHT22;41031;44.750;11.308;2022-09-27T06:16:56;15.70;89.70
55135;DHT22;41031;44.750;11.308;2022-09-27T06:19:27;15.70;89.70
55135;DHT22;41031;44.750;11.308;2022-09-27T06:21:55;15.80;89.90
55135;DHT22;41031;44.750;11.308;2022-09-27T06:24:26;15.80;90.00
55135;DHT22;41031;44.750;11.308;2022-09-27T06:26:53;15.90;90.00
55135;DHT22;41031;44.750;11.308;2022-09-27T06:29:44;16.00;90.00
55135;DHT22;41031;44.750;11.308;2022-09-27T06:32:20;16.00;90.00
55135;DHT22;41031;44.750;11.308;2022-09-27T06:34:55;16.10;90.00
55135;DHT22;41031;44.750;11.308;2022-09-27T06:37:26;16.10;90.20
55135;DHT22;41031;44.750;11.308;2022-09-27T06:39:53;16.10;90.30
55135;DHT22;41031;44.750;11.308;2022-09-27T06:42:41;16.20;90.60
55135;DHT22;41031;44.750;11.308;2022-09-27T06:45:29;16.20;90.70
55135;DHT22;41031;44.750;11.308;2022-09-27T06:48:20;16.30;90.90
55135;DHT22;41031;44.750;11.308;2022-09-27T06:51:04;16.30;91.00
55135;DHT22;41031;44.750;11.308;2022-09-27T06:53:31;16.40;91.20
55135;DHT22;41031;44.750;11.308;2022-09-27T06:55:59;16.40;91.20
55135;DHT22;41031;44.750;11.308;2022-09-27T06:58:34;16.50;91.50
55135;DHT22;41031;44.750;11.308;2022-09-27T07:01:38;16.60;91.90
55135;DHT22;41031;44.750;11.308;2022-09-27T07:04:23;16.70;91.50
55135;DHT22;41031;44.750;11.308;2022-09-27T07:07:03;16.60;91.40
55135;DHT22;41031;44.750;11.308;2022-09-27T07:09:33;16.70;91.50
55135;DHT22;41031;44.750;11.308;2022-09-27T07:12:01;16.70;91.40
55135;DHT22;41031;44.750;11.308;2022-09-27T07:14:29;16.70;91.50
55135;DHT22;41031;44.750;11.308;2022-09-27T07:16:56;16.70;91.70
55135;DHT22;41031;44.750;11.308;2022-09-27T07:19:25;16.80;91.70
55135;DHT22;41031;44.750;11.308;2022-09-27T07:21:52;16.90;91.80
55135;DHT22;41031;44.750;11.308;2022-09-27T07:24:19;17.00;91.80
55135;DHT22;41031;44.750;11.308;2022-09-27T07:26:47;17.10;91.80
55135;DHT22;41031;44.750;11.308;2022-09-27T07:29:17;17.10;91.70
55135;DHT22;41031;44.750;11.308;2022-09-27T07:31:46;17.20;91.90
55135;DHT22;41031;44.750;11.308;2022-09-27T07:34:13;17.40;91.90
55135;DHT22;41031;44.750;11.308;2022-09-27T07:36:41;17.50;91.90
55135;DHT22;41031;44.750;11.308;2022-09-27T07:39:09;17.70;91.60
55135;DHT22;41031;44.750;11.308;2022-09-27T07:41:36;17.90;91.00
55135;DHT22;41031;44.750;11.308;2022-09-27T07:44:05;18.00;90.80
55135;DHT22;41031;44.750;11.308;2022-09-27T07:46:40;18.20;90.70
55135;DHT22;41031;44.750;11.308;2022-09-27T07:49:16;18.30;90.20
55135;DHT22;41031;44.750;11.308;2022-09-27T07:52:02;18.50;89.10
55135;DHT22;41031;44.750;11.308;2022-09-27T07:54:35;18.60;87.90
55135;DHT22;41031;44.750;11.308;2022-09-27T07:57:26;18.80;87.20
55135;DHT22;41031;44.750;11.308;2022-09-27T07:59:55;19.00;87.20
55135;DHT22;41031;44.750;11.308;2022-09-27T08:02:22;19.20;86.30
55135;DHT22;41031;44.750;11.308;2022-09-27T08:04:51;19.40;85.70
55135;DHT22;41031;44.750;11.308;2022-09-27T08:07:19;19.70;84.40
55135;DHT22;41031;44.750;11.308;2022-09-27T08:09:50;19.90;82.80
55135;DHT22;41031;44.750;11.308;2022-09-27T08:12:17;20.10;81.70
55135;DHT22;41031;44.750;11.308;2022-09-27T08:14:48;20.40;80.20
55135;DHT22;41031;44.750;11.308;2022-09-27T08:17:15;20.60;79.40
55135;DHT22;41031;44.750;11.308;2022-09-27T08:20:03;20.80;78.60
55135;DHT22;41031;44.750;11.308;2022-09-27T08:23:00;21.10;77.90
55135;DHT22;41031;44.750;11.308;2022-09-27T08:25:40;21.30;76.30
55135;DHT22;41031;44.750;11.308;2022-09-27T08:28:32;21.30;75.20
55135;DHT22;41031;44.750;11.308;2022-09-27T08:31:04;21.50;75.10
55135;DHT22;41031;44.750;11.308;2022-09-27T08:33:32;21.60;74.60
55135;DHT22;41031;44.750;11.308;2022-09-27T08:36:10;21.80;74.00
55135;DHT22;41031;44.750;11.308;2022-09-27T08:38:38;22.00;73.60
55135;DHT22;41031;44.750;11.308;2022-09-27T08:43:50;22.20;71.80
55135;DHT22;41031;44.750;11.308;2022-09-27T08:46:24;22.30;71.10
55135;DHT22;41031;44.750;11.308;2022-09-27T08:49:08;22.30;71.10
55135;DHT22;41031;44.750;11.308;2022-09-27T08:51:37;22.40;69.80
55135;DHT22;41031;44.750;11.308;2022-09-27T08:54:24;22.50;68.40
55135;DHT22;41031;44.750;11.308;2022-09-27T08:56:56;22.60;67.80
55135;DHT22;41031;44.750;11.308;2022-09-27T08:59:29;22.60;67.30
55135;DHT22;41031;44.750;11.308;2022-09-27T09:01:57;22.60;67.10
55135;DHT22;41031;44.750;11.308;2022-09-27T09:04:36;22.80;66.50
55135;DHT22;41031;44.750;11.308;2022-09-27T09:07:39;22.80;65.60
55135;DHT22;41031;44.750;11.308;2022-09-27T09:16:57;23.00;62.70
55135;DHT22;41031;44.750;11.308;2022-09-27T09:19:12;23.20;62.90
55135;DHT22;41031;44.750;11.308;2022-09-27T09:24:49;23.40;61.80
55135;DHT22;41031;44.750;11.308;2022-09-27T09:35:16;23.80;61.90
55135;DHT22;41031;44.750;11.308;2022-09-27T09:38:00;23.90;61.90
55135;DHT22;41031;44.750;11.308;2022-09-27T09:40:30;23.90;62.70
55135;DHT22;41031;44.750;11.308;2022-09-27T09:43:03;23.90;62.30
55135;DHT22;41031;44.750;11.308;2022-09-27T09:45:40;23.90;62.30
55135;DHT22;41031;44.750;11.308;2022-09-27T09:50:48;23.90;62.50
55135;DHT22;41031;44.750;11.308;2022-09-27T09:53:38;23.90;62.50
55135;DHT22;41031;44.750;11.308;2022-09-27T10:01:52;23.90;60.40
55135;DHT22;41031;44.750;11.308;2022-09-27T10:04:30;23.70;60.70
55135;DHT22;41031;44.750;11.308;2022-09-27T10:07:01;23.60;60.70
55135;DHT22;41031;44.750;11.308;2022-09-27T10:09:32;23.70;60.40
55135;DHT22;41031;44.750;11.308;2022-09-27T10:12:34;23.80;59.50
55135;DHT22;41031;44.750;11.308;2022-09-27T10:15:04;24.10;58.60
55135;DHT22;41031;44.750;11.308;2022-09-27T10:17:39;24.30;57.00
55135;DHT22;41031;44.750;11.308;2022-09-27T10:22:52;24.60;55.60
55135;DHT22;41031;44.750;11.308;2022-09-27T10:26:04;24.70;55.60
55135;DHT22;41031;44.750;11.308;2022-09-27T10:28:51;24.90;55.60
55135;DHT22;41031;44.750;11.308;2022-09-27T10:31:34;25.00;55.50
55135;DHT22;41031;44.750;11.308;2022-09-27T10:34:29;25.20;55.10
55135;DHT22;41031;44.750;11.308;2022-09-27T10:39:44;25.50;53.80
55135;DHT22;41031;44.750;11.308;2022-09-27T10:42:34;25.60;53.90
55135;DHT22;41031;44.750;11.308;2022-09-27T10:45:27;25.60;53.50
55135;DHT22;41031;44.750;11.308;2022-09-27T10:48:20;25.40;50.30
55135;DHT22;41031;44.750;11.308;2022-09-27T10:51:03;25.20;52.20
55135;DHT22;41031;44.750;11.308;2022-09-27T10:53:36;25.20;51.90
55135;DHT22;41031;44.750;11.308;2022-09-27T10:56:20;25.20;51.30
55135;DHT22;41031;44.750;11.308;2022-09-27T10:58:48;25.20;50.60
55135;DHT22;41031;44.750;11.308;2022-09-27T11:01:17;25.20;51.50
55135;DHT22;41031;44.750;11.308;2022-09-27T11:04:03;25.30;51.60
55135;DHT22;41031;44.750;11.308;2022-09-27T11:06:32;25.40;51.60
55135;DHT22;41031;44.750;11.308;2022-09-27T11:09:17;25.50;51.60
55135;DHT22;41031;44.750;11.308;2022-09-27T11:11:47;25.70;51.60
55135;DHT22;41031;44.750;11.308;2022-09-27T11:14:22;25.90;50.70
55135;DHT22;41031;44.750;11.308;2022-09-27T11:20:05;25.90;50.40
55135;DHT22;41031;44.750;11.308;2022-09-27T11:22:47;25.90;50.40
55135;DHT22;41031;44.750;11.308;2022-09-27T11:25:35;25.80;49.00
55135;DHT22;41031;44.750;11.308;2022-09-27T11:39:21;25.90;50.00
55135;DHT22;41031;44.750;11.308;2022-09-27T12:02:55;26.20;50.10
55135;DHT22;41031;44.750;11.308;2022-09-27T12:05:42;26.30;50.50
55135;DHT22;41031;44.750;11.308;2022-09-27T12:11:28;26.50;50.10
55135;DHT22;41031;44.750;11.308;2022-09-27T12:16:31;26.50;49.90
55135;DHT22;41031;44.750;11.308;2022-09-27T12:18:59;26.60;49.30
55135;DHT22;41031;44.750;11.308;2022-09-27T12:21:41;26.60;50.30
55135;DHT22;41031;44.750;11.308;2022-09-27T12:24:19;26.60;50.20
55135;DHT22;41031;44.750;11.308;2022-09-27T12:27:34;26.60;48.90
55135;DHT22;41031;44.750;11.308;2022-09-27T12:30:03;26.60;49.30
55135;DHT22;41031;44.750;11.308;2022-09-27T12:32:40;26.60;49.40
55135;DHT22;41031;44.750;11.308;2022-09-27T12:40:38;26.20;50.10
55135;DHT22;41031;44.750;11.308;2022-09-27T12:43:20;25.90;50.30
55135;DHT22;41031;44.750;11.308;2022-09-27T12:46:34;25.80;50.90
55135;DHT22;41031;44.750;11.308;2022-09-27T12:51:57;25.80;51.30
55135;DHT22;41031;44.750;11.308;2022-09-27T13:02:56;25.80;52.20
55135;DHT22;41031;44.750;11.308;2022-09-27T13:09:12;25.80;51.80
55135;DHT22;41031;44.750;11.308;2022-09-27T13:14:24;25.90;52.50
55135;DHT22;41031;44.750;11.308;2022-09-27T13:16:52;25.90;52.30
55135;DHT22;41031;44.750;11.308;2022-09-27T13:19:37;26.00;52.80
55135;DHT22;41031;44.750;11.308;2022-09-27T13:28:33;26.60;51.50
55135;DHT22;41031;44.750;11.308;2022-09-27T13:31:12;26.60;51.20
55135;DHT22;41031;44.750;11.308;2022-09-27T13:33:50;26.60;50.90
55135;DHT22;41031;44.750;11.308;2022-09-27T13:36:25;26.70;50.30
55135;DHT22;41031;44.750;11.308;2022-09-27T13:47:04;27.00;50.90
55135;DHT22;41031;44.750;11.308;2022-09-27T13:49:42;27.00;50.70
55135;DHT22;41031;44.750;11.308;2022-09-27T13:52:37;26.90;50.40
55135;DHT22;41031;44.750;11.308;2022-09-27T13:55:46;26.80;49.90
55135;DHT22;41031;44.750;11.308;2022-09-27T13:58:43;26.60;49.70
55135;DHT22;41031;44.750;11.308;2022-09-27T14:02:22;26.30;49.90
55135;DHT22;41031;44.750;11.308;2022-09-27T14:04:41;26.10;50.70
55135;DHT22;41031;44.750;11.308;2022-09-27T14:07:14;25.80;51.10
55135;DHT22;41031;44.750;11.308;2022-09-27T14:09:45;25.60;51.30
55135;DHT22;41031;44.750;11.308;2022-09-27T14:12:26;25.60;51.80
55135;DHT22;41031;44.750;11.308;2022-09-27T14:14:55;25.70;51.90
55135;DHT22;41031;44.750;11.308;2022-09-27T14:17:24;25.70;51.10
55135;DHT22;41031;44.750;11.308;2022-09-27T14:19:52;25.80;50.50
55135;DHT22;41031;44.750;11.308;2022-09-27T14:22:23;25.80;50.40
55135;DHT22;41031;44.750;11.308;2022-09-27T14:24:56;25.80;50.50
55135;DHT22;41031;44.750;11.308;2022-09-27T14:27:36;25.90;49.60
55135;DHT22;41031;44.750;11.308;2022-09-27T14:30:29;25.90;49.90
55135;DHT22;41031;44.750;11.308;2022-09-27T14:33:31;25.90;50.20
55135;DHT22;41031;44.750;11.308;2022-09-27T14:39:27;25.80;49.20
55135;DHT22;41031;44.750;11.308;2022-09-27T14:41:59;25.80;49.70
55135;DHT22;41031;44.750;11.308;2022-09-27T14:44:26;25.70;49.70
55135;DHT22;41031;44.750;11.308;2022-09-27T14:47:17;25.60;49.80
55135;DHT22;41031;44.750;11.308;2022-09-27T14:52:24;25.30;49.60
55135;DHT22;41031;44.750;11.308;2022-09-27T14:55:13;25.20;50.00
55135;DHT22;41031;44.750;11.308;2022-09-27T14:57:48;25.10;50.80
55135;DHT22;41031;44.750;11.308;2022-09-27T15:00:28;25.00;51.00
55135;DHT22;41031;44.750;11.308;2022-09-27T15:02:59;24.90;51.30
55135;DHT22;41031;44.750;11.308;2022-09-27T15:05:33;24.80;51.60
55135;DHT22;41031;44.750;11.308;2022-09-27T15:08:05;24.80;52.40
55135;DHT22;41031;44.750;11.308;2022-09-27T15:10:36;24.80;52.90
55135;DHT22;41031;44.750;11.308;2022-09-27T15:13:04;24.80;52.90
55135;DHT22;41031;44.750;11.308;2022-09-27T15:15:35;24.80;53.40
55135;DHT22;41031;44.750;11.308;2022-09-27T15:18:02;24.80;53.50
55135;DHT22;41031;44.750;11.308;2022-09-27T15:20:32;24.80;53.30
55135;DHT22;41031;44.750;11.308;2022-09-27T15:23:03;24.80;53.40
55135;DHT22;41031;44.750;11.308;2022-09-27T15:25:34;24.70;53.70
55135;DHT22;41031;44.750;11.308;2022-09-27T15:28:15;24.70;54.10
55135;DHT22;41031;44.750;11.308;2022-09-27T15:30:52;24.70;53.60
55135;DHT22;41031;44.750;11.308;2022-09-27T15:33:25;24.70;53.70
55135;DHT22;41031;44.750;11.308;2022-09-27T15:35:55;24.70;53.70
55135;DHT22;41031;44.750;11.308;2022-09-27T15:38:33;24.70;53.60
55135;DHT22;41031;44.750;11.308;2022-09-27T15:45:59;24.50;53.60
55135;DHT22;41031;44.750;11.308;2022-09-27T15:48:37;24.40;53.30
55135;DHT22;41031;44.750;11.308;2022-09-27T15:51:37;24.20;53.20
55135;DHT22;41031;44.750;11.308;2022-09-27T15:54:04;24.10;53.40
55135;DHT22;41031;44.750;11.308;2022-09-27T15:56:32;24.00;53.70
55135;DHT22;41031;44.750;11.308;2022-09-27T15:59:01;23.90;54.00
55135;DHT22;41031;44.750;11.308;2022-09-27T16:01:28;23.80;54.70
55135;DHT22;41031;44.750;11.308;2022-09-27T16:04:00;23.70;55.40
55135;DHT22;41031;44.750;11.308;2022-09-27T16:06:27;23.70;55.50
55135;DHT22;41031;44.750;11.308;2022-09-27T16:08:54;23.50;55.40
55135;DHT22;41031;44.750;11.308;2022-09-27T16:11:21;23.50;55.40
55135;DHT22;41031;44.750;11.308;2022-09-27T16:13:48;23.40;55.30
55135;DHT22;41031;44.750;11.308;2022-09-27T16:16:19;23.30;55.30
55135;DHT22;41031;44.750;11.308;2022-09-27T16:18:47;23.30;55.20
55135;DHT22;41031;44.750;11.308;2022-09-27T16:21:14;23.20;55.10
55135;DHT22;41031;44.750;11.308;2022-09-27T16:23:42;23.20;55.30
55135;DHT22;41031;44.750;11.308;2022-09-27T16:26:09;23.10;55.40
55135;DHT22;41031;44.750;11.308;2022-09-27T16:28:36;23.10;55.50
55135;DHT22;41031;44.750;11.308;2022-09-27T16:31:05;23.10;55.50
55135;DHT22;41031;44.750;11.308;2022-09-27T16:33:33;23.00;55.40
55135;DHT22;41031;44.750;11.308;2022-09-27T16:36:04;23.00;55.40
55135;DHT22;41031;44.750;11.308;2022-09-27T16:38:32;23.00;55.40
55135;DHT22;41031;44.750;11.308;2022-09-27T16:41:00;22.90;55.40
55135;DHT22;41031;44.750;11.308;2022-09-27T16:43:29;22.90;55.50
55135;DHT22;41031;44.750;11.308;2022-09-27T16:46:05;22.80;55.60
55135;DHT22;41031;44.750;11.308;2022-09-27T16:48:35;22.80;55.80
55135;DHT22;41031;44.750;11.308;2022-09-27T16:51:20;22.70;55.70
55135;DHT22;41031;44.750;11.308;2022-09-27T16:54:06;22.60;56.00
55135;DHT22;41031;44.750;11.308;2022-09-27T16:56:34;22.50;56.30
55135;DHT22;41031;44.750;11.308;2022-09-27T16:59:03;22.50;56.70
55135;DHT22;41031;44.750;11.308;2022-09-27T17:01:32;22.40;57.20
55135;DHT22;41031;44.750;11.308;2022-09-27T17:04:00;22.30;57.50
55135;DHT22;41031;44.750;11.308;2022-09-27T17:06:27;22.20;57.80
55135;DHT22;41031;44.750;11.308;2022-09-27T17:08:54;22.10;58.20
55135;DHT22;41031;44.750;11.308;2022-09-27T17:11:21;22.00;58.60
55135;DHT22;41031;44.750;11.308;2022-09-27T17:13:53;21.90;59.10
55135;DHT22;41031;44.750;11.308;2022-09-27T17:16:21;21.90;59.50
55135;DHT22;41031;44.750;11.308;2022-09-27T17:18:48;21.80;59.80
55135;DHT22;41031;44.750;11.308;2022-09-27T17:21:15;21.70;60.00
55135;DHT22;41031;44.750;11.308;2022-09-27T17:23:42;21.60;60.30
55135;DHT22;41031;44.750;11.308;2022-09-27T17:26:19;21.50;60.60
55135;DHT22;41031;44.750;11.308;2022-09-27T17:28:47;21.40;61.70
55135;DHT22;41031;44.750;11.308;2022-09-27T17:31:15;21.40;61.20
55135;DHT22;41031;44.750;11.308;2022-09-27T17:33:46;21.30;61.50
55135;DHT22;41031;44.750;11.308;2022-09-27T17:36:16;21.20;61.70
55135;DHT22;41031;44.750;11.308;2022-09-27T17:38:44;21.10;61.80
55135;DHT22;41031;44.750;11.308;2022-09-27T17:41:14;21.10;61.90
55135;DHT22;41031;44.750;11.308;2022-09-27T17:43:43;21.00;62.10
55135;DHT22;41031;44.750;11.308;2022-09-27T17:46:21;21.00;61.90
55135;DHT22;41031;44.750;11.308;2022-09-27T17:48:49;21.00;61.80
55135;DHT22;41031;44.750;11.308;2022-09-27T17:51:37;20.90;61.70
55135;DHT22;41031;44.750;11.308;2022-09-27T17:54:05;20.90;61.70
55135;DHT22;41031;44.750;11.308;2022-09-27T17:56:37;20.90;62.10
55135;DHT22;41031;44.750;11.308;2022-09-27T17:59:05;20.80;62.10
55135;DHT22;41031;44.750;11.308;2022-09-27T18:01:33;20.80;62.30
55135;DHT22;41031;44.750;11.308;2022-09-27T18:04:00;20.70;62.40
55135;DHT22;41031;44.750;11.308;2022-09-27T18:06:28;20.70;62.50
55135;DHT22;41031;44.750;11.308;2022-09-27T18:08:55;20.60;62.60
55135;DHT22;41031;44.750;11.308;2022-09-27T18:11:24;20.60;62.90
55135;DHT22;41031;44.750;11.308;2022-09-27T18:13:57;20.50;63.10
55135;DHT22;41031;44.750;11.308;2022-09-27T18:16:29;20.50;63.10
55135;DHT22;41031;44.750;11.308;2022-09-27T18:18:58;20.40;63.10
55135;DHT22;41031;44.750;11.308;2022-09-27T18:21:27;20.40;63.30
55135;DHT22;41031;44.750;11.308;2022-09-27T18:23:55;20.30;63.50
55135;DHT22;41031;44.750;11.308;2022-09-27T18:26:24;20.30;63.50
55135;DHT22;41031;44.750;11.308;2022-09-27T18:28:54;20.30;63.50
55135;DHT22;41031;44.750;11.308;2022-09-27T18:31:22;20.20;63.40
55135;DHT22;41031;44.750;11.308;2022-09-27T18:33:51;20.20;63.30
55135;DHT22;41031;44.750;11.308;2022-09-27T18:36:23;20.20;63.40
55135;DHT22;41031;44.750;11.308;2022-09-27T18:38:55;20.10;63.30
55135;DHT22;41031;44.750;11.308;2022-09-27T18:41:25;20.10;63.30
55135;DHT22;41031;44.750;11.308;2022-09-27T18:43:54;20.10;63.20
55135;DHT22;41031;44.750;11.308;2022-09-27T18:46:24;20.10;63.10
55135;DHT22;41031;44.750;11.308;2022-09-27T18:49:09;20.10;63.20
55135;DHT22;41031;44.750;11.308;2022-09-27T18:51:38;20.10;63.30